Time;durP1;ratioP1;P1;durP2;ratioP2;P2;SDS_P1;SDS_P2;PMS_P1;PMS_P2;Temp;Humidity;BMP_temperature;BMP_pressure;BME280_temperature;BME280_humidity;BME280_pressure;Samples;Min_cycle;Max_cycle;Signal;HPM_P1;HPM_P2
2023/08/07 00:00:11;;;;;;;5.53;1.27;;;13.00;99.90;;;;;;5033336;28;20029;-51
2023/08/07 00:02:37;;;;;;;2.78;0.95;;;13.00;99.90;;;;;;5032950;28;20116;-52
2023/08/07 00:05:03;;;;;;;5.43;1.27;;;13.00;99.90;;;;;;5033091;28;20103;-51
2023/08/07 00:07:28;;;;;;;4.65;1.30;;;13.00;99.90;;;;;;5033418;28;20332;-51
2023/08/07 00:09:54;;;;;;;5.18;1.55;;;13.00;99.90;;;;;;5015617;28;20029;-52
2023/08/07 00:12:19;;;;;;;3.95;1.40;;;13.00;99.90;;;;;;5032528;28;20069;-52
2023/08/07 00:14:47;;;;;;;4.45;1.40;;;13.00;99.90;;;;;;5033140;28;20044;-52
2023/08/07 00:17:13;;;;;;;7.45;1.27;;;13.00;99.90;;;;;;5033519;28;20402;-53
2023/08/07 00:19:38;;;;;;;6.30;1.42;;;13.00;99.90;;;;;;5033287;28;20036;-50
2023/08/07 00:22:04;;;;;;;7.90;1.55;;;13.00;99.90;;;;;;5033032;28;20109;-52
2023/08/07 00:24:30;;;;;;;3.40;1.20;;;13.00;99.90;;;;;;5015136;28;20033;-50
2023/08/07 00:26:56;;;;;;;4.30;1.23;;;13.00;99.90;;;;;;5032604;28;20477;-49
2023/08/07 00:29:22;;;;;;;4.80;1.88;;;13.00;99.90;;;;;;5015062;28;20079;-53
2023/08/07 00:31:47;;;;;;;4.65;0.90;;;13.00;99.90;;;;;;5014794;28;20025;-50
2023/08/07 00:34:13;;;;;;;3.60;1.23;;;13.10;99.90;;;;;;5014782;28;20029;-53
2023/08/07 00:36:39;;;;;;;5.72;1.38;;;13.10;99.90;;;;;;5014722;28;20039;-48
2023/08/07 00:39:05;;;;;;;4.65;1.45;;;13.10;99.90;;;;;;5032687;28;20033;-53
2023/08/07 00:41:31;;;;;;;3.90;1.00;;;13.00;99.90;;;;;;5032377;28;20117;-51
2023/08/07 00:43:56;;;;;;;4.28;1.58;;;13.00;99.90;;;;;;5032355;28;20452;-49
2023/08/07 00:46:22;;;;;;;4.43;1.05;;;13.00;99.90;;;;;;5032395;28;20055;-53
2023/08/07 00:48:48;;;;;;;4.53;1.05;;;13.10;99.90;;;;;;5014579;28;20127;-52
2023/08/07 00:51:15;;;;;;;3.33;1.00;;;13.10;99.90;;;;;;5014539;28;20033;-53
2023/08/07 00:53:41;;;;;;;1.95;0.70;;;13.10;99.90;;;;;;5031918;28;20501;-50
2023/08/07 00:56:07;;;;;;;2.88;1.13;;;13.10;99.90;;;;;;5014349;28;20037;-54
2023/08/07 00:58:34;;;;;;;3.08;1.10;;;13.10;99.90;;;;;;5014680;28;20116;-51
2023/08/07 01:00:59;;;;;;;4.43;1.10;;;13.10;99.90;;;;;;5014306;28;20036;-50
2023/08/07 01:03:25;;;;;;;2.47;0.80;;;13.10;99.90;;;;;;4997850;28;20026;-52
2023/08/07 01:05:51;;;;;;;4.82;1.13;;;13.20;99.90;;;;;;5031874;28;20021;-51
2023/08/07 01:08:20;;;;;;;6.93;1.52;;;13.20;99.90;;;;;;5014070;28;20033;-52
2023/08/07 01:11:10;;;;;;;3.90;1.50;;;13.20;99.90;;;;;;5031944;28;20413;-50
2023/08/07 01:13:40;;;;;;;5.03;1.55;;;13.10;99.90;;;;;;5013804;28;20029;-53
2023/08/07 01:16:24;;;;;;;2.25;0.70;;;13.10;99.90;;;;;;5013958;28;20034;-50
2023/08/07 01:18:50;;;;;;;5.57;1.17;;;13.00;99.90;;;;;;5014075;28;20132;-53
2023/08/07 01:21:19;;;;;;;3.15;0.88;;;13.00;99.90;;;;;;5014231;28;20026;-50
2023/08/07 01:23:46;;;;;;;;;;;13.00;99.90;;;;;;5014038;28;20069;-53
2023/08/07 01:26:12;;;;;;;7.22;1.25;;;13.00;99.90;;;;;;5031084;28;19909;-54
2023/08/07 01:28:45;;;;;;;2.47;0.70;;;13.00;99.90;;;;;;5013845;28;20036;-54
2023/08/07 01:31:15;;;;;;;4.05;1.10;;;13.00;99.90;;;;;;5031464;28;20029;-52
2023/08/07 01:34:08;;;;;;;6.88;1.00;;;13.00;99.90;;;;;;5031419;28;20043;-54
2023/08/07 01:36:34;;;;;;;6.05;1.50;;;13.00;99.90;;;;;;5031326;28;20479;-50
2023/08/07 01:39:01;;;;;;;2.72;1.08;;;13.10;99.90;;;;;;5013704;28;20029;-54
2023/08/07 01:41:27;;;;;;;5.35;1.92;;;13.10;99.90;;;;;;5031193;28;20029;-49
2023/08/07 01:43:54;;;;;;;4.82;1.17;;;13.10;99.90;;;;;;4997000;28;20033;-49
2023/08/07 01:46:21;;;;;;;6.30;1.42;;;13.10;99.90;;;;;;5013706;28;20043;-49
2023/08/07 01:48:46;;;;;;;6.03;1.20;;;13.10;99.90;;;;;;5013659;28;20025;-49
2023/08/07 01:51:12;;;;;;;6.10;1.08;;;13.10;99.90;;;;;;5013691;28;20375;-49
2023/08/07 01:53:38;;;;;;;5.78;1.20;;;13.00;99.90;;;;;;5031815;28;20072;-48
2023/08/07 01:56:04;;;;;;;5.63;1.08;;;13.10;99.90;;;;;;5013619;28;20504;-49
2023/08/07 01:58:31;;;;;;;2.65;1.17;;;13.10;99.90;;;;;;5013464;28;20029;-49
2023/08/07 02:00:56;;;;;;;4.68;1.75;;;13.10;99.90;;;;;;5013892;28;20397;-49
2023/08/07 02:03:22;;;;;;;4.85;1.23;;;13.00;99.90;;;;;;5014252;28;20029;-52
2023/08/07 02:05:47;;;;;;;4.95;1.13;;;13.00;99.90;;;;;;5015143;28;20109;-49
2023/08/07 02:08:14;;;;;;;4.43;1.13;;;13.00;99.90;;;;;;5015096;28;20604;-49
2023/08/07 02:10:40;;;;;;;4.18;1.10;;;12.90;99.90;;;;;;5015266;28;20021;-52
2023/08/07 02:13:05;;;;;;;5.75;1.40;;;12.90;99.90;;;;;;5014400;28;20036;-49
2023/08/07 02:15:32;;;;;;;2.92;0.90;;;12.80;99.90;;;;;;5014782;28;20030;-52
2023/08/07 02:17:58;;;;;;;4.55;1.10;;;12.80;99.90;;;;;;5030967;28;20047;-55
2023/08/07 02:20:24;;;;;;;5.53;1.42;;;12.80;99.90;;;;;;5030806;28;20025;-50
2023/08/07 02:22:49;;;;;;;4.80;1.55;;;12.70;99.90;;;;;;4996272;28;20021;-54
2023/08/07 02:25:15;;;;;;;4.28;1.17;;;12.70;99.90;;;;;;5030457;28;20060;-52
2023/08/07 02:27:41;;;;;;;4.88;1.40;;;12.60;99.90;;;;;;5030638;28;20029;-52
2023/08/07 02:30:07;;;;;;;8.45;1.20;;;12.60;99.90;;;;;;5030589;28;20181;-51
2023/08/07 02:32:32;;;;;;;6.85;1.58;;;12.60;99.90;;;;;;5030390;28;20501;-54
2023/08/07 02:34:58;;;;;;;3.85;1.25;;;12.60;99.90;;;;;;5012559;28;20029;-52
2023/08/07 02:37:24;;;;;;;4.47;1.30;;;12.60;99.90;;;;;;5019193;28;20052;-50
2023/08/07 02:39:49;;;;;;;4.90;1.30;;;12.60;99.90;;;;;;5037121;28;20028;-54
2023/08/07 02:42:15;;;;;;;5.97;1.20;;;12.60;99.90;;;;;;5019041;28;20534;-53
2023/08/07 02:44:41;;;;;;;3.38;1.38;;;12.60;99.90;;;;;;5019429;28;20036;-54
2023/08/07 02:47:06;;;;;;;4.32;1.15;;;12.60;99.90;;;;;;5019350;28;20390;-52
2023/08/07 02:49:32;;;;;;;5.22;1.10;;;12.60;99.90;;;;;;5037154;28;20029;-54
2023/08/07 02:51:58;;;;;;;5.65;1.50;;;12.60;99.90;;;;;;5019254;28;20084;-50
2023/08/07 02:54:23;;;;;;;2.67;1.05;;;12.60;99.90;;;;;;5019159;28;20033;-49
2023/08/07 02:56:49;;;;;;;3.58;1.15;;;12.60;99.90;;;;;;5019103;28;20040;-52
2023/08/07 02:59:15;;;;;;;5.68;1.60;;;12.60;99.90;;;;;;5019338;28;20056;-54
2023/08/07 03:01:42;;;;;;;7.57;1.17;;;12.60;99.90;;;;;;5019274;28;20314;-52
2023/08/07 03:04:07;;;;;;;5.15;1.35;;;12.60;99.90;;;;;;5019293;28;20091;-51
2023/08/07 03:06:33;;;;;;;8.48;1.70;;;12.60;99.90;;;;;;5037049;28;20033;-54
2023/08/07 03:08:59;;;;;;;5.53;1.58;;;12.50;99.90;;;;;;5037360;28;20029;-54
2023/08/07 03:11:24;;;;;;;4.63;1.75;;;12.60;99.90;;;;;;5019303;28;20037;-52
2023/08/07 03:13:50;;;;;;;4.32;1.50;;;12.60;99.90;;;;;;5019090;28;20029;-53
2023/08/07 03:16:16;;;;;;;4.57;1.55;;;12.60;99.90;;;;;;5036878;28;20025;-54
2023/08/07 03:18:41;;;;;;;7.63;1.33;;;12.60;99.90;;;;;;5019277;28;20030;-52
2023/08/07 03:21:07;;;;;;;4.07;1.17;;;12.50;99.90;;;;;;5019261;28;20116;-54
2023/08/07 03:23:32;;;;;;;5.50;1.40;;;12.50;99.90;;;;;;5018827;28;20112;-51
2023/08/07 03:26:06;;;;;;;7.80;1.48;;;12.60;99.90;;;;;;5002916;28;20398;-50
2023/08/07 03:28:33;;;;;;;6.80;1.58;;;12.60;99.90;;;;;;5019057;28;20038;-53
2023/08/07 03:30:59;;;;;;;7.00;1.40;;;12.60;99.90;;;;;;5018985;28;20159;-48
2023/08/07 03:33:26;;;;;;;8.57;1.80;;;12.60;99.90;;;;;;5018563;28;20033;-54
2023/08/07 03:35:53;;;;;;;6.88;1.55;;;12.60;99.90;;;;;;5018739;28;20108;-54
2023/08/07 03:38:20;;;;;;;8.63;1.48;;;12.60;99.90;;;;;;5002569;28;20021;-54
2023/08/07 03:40:46;;;;;;;7.80;1.50;;;12.60;99.90;;;;;;5018895;28;20394;-53
2023/08/07 03:43:12;;;;;;;6.13;1.40;;;12.60;99.90;;;;;;5018452;28;20049;-53
2023/08/07 03:45:39;;;;;;;5.10;1.83;;;12.60;99.90;;;;;;5018723;28;20017;-52
2023/08/07 03:48:05;;;;;;;7.32;1.23;;;12.70;99.90;;;;;;5016189;28;20064;-54
2023/08/07 03:50:34;;;;;;;4.80;1.70;;;12.70;99.90;;;;;;5015644;28;20057;-49
2023/08/07 03:53:00;;;;;;;6.63;1.83;;;12.70;99.90;;;;;;5015225;28;20076;-51
2023/08/07 03:55:27;;;;;;;9.32;2.20;;;12.70;99.90;;;;;;5015324;28;20033;-53
2023/08/07 03:57:53;;;;;;;7.03;1.58;;;12.70;99.90;;;;;;5015406;28;20026;-54
2023/08/07 04:00:18;;;;;;;3.22;1.52;;;12.70;99.90;;;;;;5015457;28;20486;-50
2023/08/07 04:02:47;;;;;;;8.07;1.50;;;12.80;99.90;;;;;;5015236;28;20116;-52
2023/08/07 04:05:13;;;;;;;6.25;2.10;;;12.80;99.90;;;;;;5015247;28;20460;-50
2023/08/07 04:07:39;;;;;;;2.30;1.25;;;12.70;99.90;;;;;;5032865;28;20136;-50
2023/08/07 04:10:05;;;;;;;10.05;1.52;;;12.80;99.90;;;;;;5033152;28;20036;-51
2023/08/07 04:12:31;;;;;;;5.47;1.90;;;12.70;99.90;;;;;;5015054;28;20124;-54
2023/08/07 04:14:56;;;;;;;7.10;1.58;;;12.70;99.90;;;;;;5014944;28;20121;-53
2023/08/07 04:17:22;;;;;;;7.18;1.85;;;12.70;99.90;;;;;;5015176;28;20033;-53
2023/08/07 04:19:47;;;;;;;6.35;1.63;;;12.60;99.90;;;;;;5015128;28;20033;-52
2023/08/07 04:22:13;;;;;;;6.53;1.63;;;12.70;99.90;;;;;;5014665;28;20025;-52
2023/08/07 04:24:39;;;;;;;4.70;1.55;;;12.70;99.90;;;;;;5015003;28;20037;-54
2023/08/07 04:27:05;;;;;;;7.57;1.50;;;12.70;99.90;;;;;;5032667;28;20056;-54
2023/08/07 04:29:31;;;;;;;5.65;1.90;;;12.70;99.90;;;;;;5014938;28;20033;-54
2023/08/07 04:31:56;;;;;;;9.05;1.45;;;12.70;99.90;;;;;;5014815;28;20129;-53
2023/08/07 04:34:22;;;;;;;6.30;1.38;;;12.70;99.90;;;;;;5032396;28;20030;-53
2023/08/07 04:36:50;;;;;;;5.13;1.52;;;12.70;99.90;;;;;;5014846;28;20041;-53
2023/08/07 04:39:15;;;;;;;2.17;1.10;;;12.80;99.90;;;;;;5032804;28;20032;-54
2023/08/07 04:41:41;;;;;;;9.18;2.25;;;12.80;99.90;;;;;;5032248;28;20394;-51
2023/08/07 04:44:06;;;;;;;7.82;1.80;;;12.90;99.90;;;;;;5032541;28;20030;-53
2023/08/07 04:46:33;;;;;;;6.97;1.55;;;12.90;99.90;;;;;;5032188;28;20103;-52
2023/08/07 04:49:00;;;;;;;5.90;1.38;;;12.90;99.90;;;;;;5014624;28;20037;-54
2023/08/07 04:51:26;;;;;;;5.72;1.63;;;12.90;99.90;;;;;;5032035;28;20037;-52
2023/08/07 04:53:52;;;;;;;9.15;4.25;;;13.00;99.90;;;;;;5032212;28;20037;-54
2023/08/07 04:56:17;;;;;;;4.57;2.15;;;13.00;99.90;;;;;;5031957;28;20131;-54
2023/08/07 04:58:43;;;;;;;7.28;2.92;;;13.00;99.90;;;;;;5031595;28;20120;-53
2023/08/07 05:01:08;;;;;;;5.78;2.53;;;13.00;99.90;;;;;;5031566;28;20025;-51
2023/08/07 05:03:34;;;;;;;9.02;2.88;;;13.00;99.90;;;;;;5014334;28;20033;-52
2023/08/07 05:06:01;;;;;;;6.32;1.40;;;13.10;99.90;;;;;;5031648;28;20037;-54
2023/08/07 05:08:27;;;;;;;6.78;1.98;;;13.00;99.90;;;;;;5031938;28;20067;-54
2023/08/07 05:10:52;;;;;;;7.57;2.08;;;13.00;99.90;;;;;;5014177;28;20042;-52
2023/08/07 05:13:18;;;;;;;5.05;1.70;;;13.00;99.90;;;;;;5031429;28;20033;-51
2023/08/07 05:15:46;;;;;;;6.22;1.88;;;13.00;99.90;;;;;;5031697;28;20083;-50
2023/08/07 05:18:12;;;;;;;7.85;2.33;;;13.00;99.90;;;;;;5031873;28;20478;-54
2023/08/07 05:20:37;;;;;;;5.47;1.40;;;13.00;99.90;;;;;;5031607;28;20109;-49
2023/08/07 05:23:03;;;;;;;5.30;1.63;;;13.00;99.90;;;;;;5031356;28;20394;-49
2023/08/07 05:25:28;;;;;;;5.65;1.27;;;12.90;99.90;;;;;;5031533;28;20033;-51
2023/08/07 05:27:54;;;;;;;6.53;1.33;;;13.00;99.90;;;;;;5031555;28;20037;-53
2023/08/07 05:30:20;;;;;;;5.45;1.70;;;12.90;99.90;;;;;;5031491;28;20082;-50
2023/08/07 05:32:45;;;;;;;5.75;1.45;;;13.00;99.90;;;;;;5031182;28;20029;-52
2023/08/07 05:35:11;;;;;;;7.88;1.73;;;12.90;99.90;;;;;;5030987;28;20116;-48
2023/08/07 05:37:37;;;;;;;6.18;1.55;;;12.90;99.90;;;;;;5031407;28;20026;-49
2023/08/07 05:40:04;;;;;;;5.25;1.70;;;12.80;99.90;;;;;;5031347;28;20569;-49
2023/08/07 05:42:29;;;;;;;5.00;1.63;;;12.80;99.90;;;;;;5031101;28;20410;-54
2023/08/07 05:44:55;;;;;;;5.50;2.00;;;12.80;99.90;;;;;;5031049;28;20033;-49
2023/08/07 05:47:20;;;;;;;4.65;1.55;;;12.80;99.90;;;;;;5031268;28;20259;-50
2023/08/07 05:49:46;;;;;;;4.80;1.65;;;12.80;99.90;;;;;;5031104;28;20185;-49
2023/08/07 05:52:11;;;;;;;7.15;2.20;;;12.70;99.90;;;;;;5031052;28;20029;-51
2023/08/07 05:54:37;;;;;;;6.05;2.05;;;12.70;99.90;;;;;;5030912;28;20040;-49
2023/08/07 05:57:03;;;;;;;6.88;1.48;;;12.80;99.90;;;;;;5013170;28;20029;-53
2023/08/07 05:59:29;;;;;;;3.88;1.75;;;12.70;99.90;;;;;;5031573;28;20029;-52
2023/08/07 06:01:55;;;;;;;5.93;1.95;;;12.70;99.90;;;;;;5030945;28;20076;-49
2023/08/07 06:04:21;;;;;;;4.80;2.40;;;12.70;99.90;;;;;;5030801;28;20536;-50
2023/08/07 06:06:47;;;;;;;6.70;1.90;;;12.60;99.90;;;;;;5030729;28;20115;-48
2023/08/07 06:09:16;;;;;;;4.85;1.45;;;12.60;99.90;;;;;;5030930;28;20041;-49
2023/08/07 06:11:42;;;;;;;7.13;3.17;;;12.60;99.90;;;;;;5030602;28;20491;-51
2023/08/07 06:14:08;;;;;;;5.53;1.73;;;12.70;99.90;;;;;;5030890;28;20065;-49
2023/08/07 06:16:33;;;;;;;5.60;1.52;;;12.70;99.90;;;;;;5030919;28;20103;-52
2023/08/07 06:18:59;;;;;;;6.20;1.65;;;12.70;99.90;;;;;;5031124;28;20033;-49
2023/08/07 06:21:25;;;;;;;4.30;1.58;;;12.70;99.90;;;;;;5030844;28;20060;-52
2023/08/07 06:23:51;;;;;;;7.28;1.88;;;12.70;99.90;;;;;;5030832;28;20036;-54
2023/08/07 06:26:17;;;;;;;6.63;1.58;;;12.70;99.90;;;;;;5030651;28;20076;-52
2023/08/07 06:28:43;;;;;;;4.57;1.52;;;12.80;99.90;;;;;;5030767;28;20057;-54
2023/08/07 06:31:10;;;;;;;11.23;2.05;;;12.80;99.90;;;;;;5030679;28;20072;-50
2023/08/07 06:33:36;;;;;;;4.82;1.75;;;12.80;99.90;;;;;;5030191;28;20572;-50
2023/08/07 06:36:06;;;;;;;4.80;2.13;;;12.90;99.90;;;;;;5030653;28;20032;-48
2023/08/07 06:38:32;;;;;;;5.60;1.48;;;12.90;99.90;;;;;;5030882;28;20029;-53
2023/08/07 06:40:57;;;;;;;6.60;1.90;;;12.90;99.90;;;;;;5030648;28;20029;-48
2023/08/07 06:43:23;;;;;;;7.15;2.33;;;12.90;99.90;;;;;;5030261;28;20022;-50
2023/08/07 06:45:53;;;;;;;6.35;2.05;;;12.90;99.90;;;;;;5030277;28;20075;-52
2023/08/07 06:48:19;;;;;;;6.07;1.98;;;12.90;99.90;;;;;;5030709;28;20060;-52
2023/08/07 06:50:46;;;;;;;5.18;1.73;;;12.90;99.90;;;;;;5030454;28;20053;-52
2023/08/07 06:53:12;;;;;;;8.98;1.83;;;13.00;99.90;;;;;;5030103;28;20061;-53
2023/08/07 06:55:37;;;;;;;6.05;2.13;;;13.00;99.90;;;;;;5030282;28;20118;-54
2023/08/07 06:58:03;;;;;;;4.90;1.80;;;13.00;99.90;;;;;;5030505;28;20385;-50
2023/08/07 07:00:29;;;;;;;9.73;1.98;;;13.00;99.90;;;;;;5030639;28;20018;-53
2023/08/07 07:02:54;;;;;;;4.60;1.80;;;13.00;99.90;;;;;;5030154;28;20433;-53
2023/08/07 07:05:20;;;;;;;6.35;2.03;;;13.00;99.90;;;;;;5030076;28;20083;-50
2023/08/07 07:07:45;;;;;;;5.10;1.77;;;13.00;99.90;;;;;;5030464;28;20112;-50
2023/08/07 07:10:12;;;;;;;5.57;1.70;;;13.00;99.90;;;;;;5030327;28;20471;-49
2023/08/07 07:12:38;;;;;;;4.03;1.77;;;13.00;99.90;;;;;;5029965;28;20055;-52
2023/08/07 07:15:04;;;;;;;4.97;1.70;;;13.00;99.90;;;;;;5029941;28;20478;-51
2023/08/07 07:17:29;;;;;;;5.95;1.80;;;13.00;99.90;;;;;;5030228;28;20037;-52
2023/08/07 07:19:56;;;;;;;4.82;1.48;;;13.00;99.90;;;;;;5030198;28;20026;-48
2023/08/07 07:22:22;;;;;;;6.82;2.15;;;13.10;99.90;;;;;;5030078;28;20100;-52
2023/08/07 07:24:48;;;;;;;5.22;1.48;;;13.10;99.90;;;;;;5033960;28;20121;-49
2023/08/07 07:27:13;;;;;;;5.45;1.70;;;13.10;99.90;;;;;;5034186;28;20022;-50
2023/08/07 07:29:39;;;;;;;3.65;1.55;;;13.00;99.90;;;;;;5033891;28;20529;-52
2023/08/07 07:32:05;;;;;;;4.93;1.40;;;13.00;99.90;;;;;;5033582;28;20117;-51
2023/08/07 07:34:31;;;;;;;5.68;1.80;;;13.00;99.90;;;;;;5033648;28;20037;-50
2023/08/07 07:36:56;;;;;;;6.03;2.05;;;13.00;99.90;;;;;;5033500;28;20456;-50
2023/08/07 07:39:22;;;;;;;4.97;1.60;;;13.00;99.90;;;;;;5033747;28;20025;-52
2023/08/07 07:41:47;;;;;;;9.68;1.73;;;13.00;99.90;;;;;;5033490;28;20060;-51
2023/08/07 07:44:13;;;;;;;8.90;1.77;;;13.00;99.90;;;;;;5033310;28;20478;-53
2023/08/07 07:46:39;;;;;;;10.15;2.90;;;13.00;99.90;;;;;;5033222;28;20033;-49
2023/08/07 07:49:04;;;;;;;7.55;3.67;;;13.00;99.90;;;;;;5033511;28;20497;-51
2023/08/07 07:51:31;;;;;;;6.30;2.33;;;13.00;99.90;;;;;;5033176;28;20033;-50
2023/08/07 07:54:00;;;;;;;6.65;2.15;;;13.00;99.90;;;;;;5033333;28;20073;-49
2023/08/07 07:56:26;;;;;;;8.20;1.92;;;13.10;99.90;;;;;;5033169;28;20029;-52
2023/08/07 07:58:51;;;;;;;6.03;2.40;;;13.20;99.90;;;;;;5033182;28;20145;-50
2023/08/07 08:01:18;;;;;;;5.80;1.58;;;13.20;99.90;;;;;;5033432;28;20425;-51
2023/08/07 08:03:43;;;;;;;5.93;1.60;;;13.30;99.90;;;;;;5015327;28;20103;-51
2023/08/07 08:06:12;;;;;;;6.70;1.60;;;13.30;99.90;;;;;;5032893;28;20493;-49
2023/08/07 08:08:37;;;;;;;5.10;1.55;;;13.40;99.90;;;;;;5032977;28;20045;-51
2023/08/07 08:11:03;;;;;;;5.53;1.77;;;13.40;99.90;;;;;;5033295;28;20025;-49
2023/08/07 08:13:28;;;;;;;4.88;1.55;;;13.40;99.90;;;;;;5032605;28;20034;-49
2023/08/07 08:15:54;;;;;;;7.13;1.83;;;13.50;99.90;;;;;;5032995;28;20053;-48
2023/08/07 08:18:20;;;;;;;3.30;1.30;;;13.50;99.90;;;;;;5032851;28;20454;-50
2023/08/07 08:20:45;;;;;;;7.63;1.92;;;13.50;99.90;;;;;;5032888;28;20032;-51
2023/08/07 08:23:11;;;;;;;5.85;1.70;;;13.60;99.90;;;;;;5033004;28;20047;-54
2023/08/07 08:25:37;;;;;;;5.88;1.80;;;13.60;99.90;;;;;;5014952;28;20128;-54
2023/08/07 08:28:03;;;;;;;9.85;2.33;;;13.60;99.90;;;;;;5032795;28;20175;-50
2023/08/07 08:30:29;;;;;;;5.93;1.67;;;13.70;99.90;;;;;;5015122;28;20029;-53
2023/08/07 08:32:55;;;;;;;3.75;1.40;;;13.70;99.90;;;;;;5032555;28;20280;-50
2023/08/07 08:35:20;;;;;;;6.70;2.13;;;13.80;99.90;;;;;;5032125;28;20390;-52
2023/08/07 08:37:46;;;;;;;6.85;1.85;;;13.80;99.90;;;;;;5032554;28;20026;-49
2023/08/07 08:40:12;;;;;;;8.60;2.17;;;13.90;99.90;;;;;;5032593;28;20359;-49
2023/08/07 08:42:42;;;;;;;5.70;2.00;;;13.90;99.90;;;;;;5032121;28;20469;-51
2023/08/07 08:45:11;;;;;;;5.40;1.98;;;14.00;99.90;;;;;;5032249;28;20069;-56
2023/08/07 08:47:38;;;;;;;7.55;1.63;;;14.00;99.90;;;;;;5032470;28;20025;-52
2023/08/07 08:50:14;;;;;;;4.55;1.60;;;14.10;99.90;;;;;;5032498;28;20112;-50
2023/08/07 08:52:44;;;;;;;7.97;1.90;;;14.30;99.90;;;;;;5032234;28;20037;-53
2023/08/07 08:55:11;;;;;;;5.30;1.95;;;14.40;99.90;;;;;;5032116;28;20501;-50
2023/08/07 08:57:38;;;;;;;3.58;1.50;;;14.50;99.90;;;;;;5032386;28;20508;-49
2023/08/07 09:00:14;;;;;;;5.03;1.85;;;14.70;99.90;;;;;;5032216;28;20312;-48
2023/08/07 09:02:41;;;;;;;6.45;2.03;;;14.90;99.90;;;;;;5032205;28;20030;-49
2023/08/07 09:05:07;;;;;;;3.65;1.50;;;14.90;99.90;;;;;;5031898;28;20502;-53
2023/08/07 09:07:34;;;;;;;7.28;2.67;;;15.00;99.90;;;;;;5031882;28;20064;-50
2023/08/07 09:10:02;;;;;;;19.27;10.10;;;15.20;99.90;;;;;;5032102;28;20033;-49
2023/08/07 09:12:33;;;;;;;10.67;3.03;;;15.30;99.90;;;;;;5031807;28;20371;-49
2023/08/07 09:15:01;;;;;;;9.30;2.67;;;15.30;99.90;;;;;;5031729;28;20034;-48
2023/08/07 09:17:29;;;;;;;5.90;2.00;;;15.30;99.90;;;;;;5032038;28;20235;-51
2023/08/07 09:19:55;;;;;;;6.70;1.95;;;15.20;99.90;;;;;;5031888;28;20105;-48
2023/08/07 09:22:21;;;;;;;6.43;2.15;;;15.10;99.90;;;;;;5031699;28;20047;-48
2023/08/07 09:24:47;;;;;;;7.25;2.72;;;15.00;99.90;;;;;;5032017;28;20018;-49
2023/08/07 09:27:13;;;;;;;5.85;1.73;;;14.90;99.90;;;;;;5031881;28;20502;-49
2023/08/07 09:29:45;;;;;;;6.50;1.73;;;14.90;99.90;;;;;;5032135;28;20141;-49
2023/08/07 09:32:14;;;;;;;7.07;2.33;;;14.80;99.90;;;;;;5031678;28;20113;-52
2023/08/07 09:34:41;;;;;;;7.30;2.15;;;14.70;99.90;;;;;;5031385;28;20087;-48
2023/08/07 09:37:11;;;;;;;3.63;1.70;;;14.60;99.90;;;;;;5031352;28;20029;-54
2023/08/07 09:39:37;;;;;;;;;;;14.40;99.90;;;;;;5032016;28;20084;-52
2023/08/07 09:42:03;;;;;;;8.25;2.45;;;14.40;99.90;;;;;;5031345;28;19913;-52
2023/08/07 09:44:36;;;;;;;8.32;2.38;;;14.40;99.90;;;;;;5031394;28;20551;-52
2023/08/07 09:47:14;;;;;;;6.22;2.33;;;14.60;99.90;;;;;;5030699;28;20037;-54
2023/08/07 09:49:41;;;;;;;12.35;2.90;;;14.70;99.90;;;;;;5031303;28;20041;-51
2023/08/07 09:52:08;;;;;;;6.53;2.08;;;14.80;99.90;;;;;;5031145;28;20056;-48
2023/08/07 09:54:34;;;;;;;5.40;1.98;;;14.90;99.90;;;;;;5030958;28;20037;-50
2023/08/07 09:57:02;;;;;;;7.10;1.73;;;15.00;99.90;;;;;;5030953;28;20036;-51
2023/08/07 09:59:28;;;;;;;5.22;1.88;;;15.10;99.90;;;;;;5031632;28;20387;-50
2023/08/07 10:01:55;;;;;;;6.28;1.38;;;15.20;99.90;;;;;;5030891;28;20033;-53
2023/08/07 10:04:21;;;;;;;5.35;1.65;;;15.40;99.90;;;;;;5030965;28;20032;-49
2023/08/07 10:06:47;;;;;;;5.32;1.88;;;15.60;99.90;;;;;;5030874;28;20112;-52
2023/08/07 10:09:13;;;;;;;7.72;1.77;;;15.60;99.90;;;;;;5031233;28;20029;-52
2023/08/07 10:11:40;;;;;;;7.10;2.45;;;15.70;99.90;;;;;;5031103;28;20171;-50
2023/08/07 10:14:06;;;;;;;5.78;2.38;;;15.80;99.90;;;;;;5030562;28;20478;-50
2023/08/07 10:16:32;;;;;;;4.28;1.50;;;15.90;99.90;;;;;;5030653;28;20032;-53
2023/08/07 10:18:58;;;;;;;5.80;1.52;;;16.10;99.90;;;;;;5030811;28;20539;-49
2023/08/07 10:21:25;;;;;;;8.48;1.77;;;16.30;99.90;;;;;;5030595;28;20052;-49
2023/08/07 10:23:56;;;;;;;6.47;1.80;;;16.50;99.90;;;;;;5030628;28;20034;-49
2023/08/07 10:26:23;;;;;;;4.80;1.50;;;16.50;99.90;;;;;;5030575;28;20470;-50
2023/08/07 10:28:51;;;;;;;5.57;1.60;;;16.60;99.90;;;;;;5030978;28;20037;-48
2023/08/07 10:31:18;;;;;;;4.90;1.45;;;16.70;99.90;;;;;;5030583;28;20065;-52
2023/08/07 10:33:44;;;;;;;5.43;1.60;;;16.80;99.90;;;;;;5012692;28;20567;-49
2023/08/07 10:36:10;;;;;;;3.28;1.50;;;16.70;99.90;;;;;;5030419;28;20029;-51
2023/08/07 10:38:37;;;;;;;6.13;1.65;;;16.70;99.90;;;;;;5030722;28;20443;-51
2023/08/07 10:41:02;;;;;;;4.90;1.05;;;16.60;99.90;;;;;;5030533;28;20036;-50
2023/08/07 10:43:29;;;;;;;6.25;1.42;;;16.50;99.90;;;;;;5029977;28;20025;-49
2023/08/07 10:46:03;;;;;;;3.72;1.60;;;16.50;99.90;;;;;;5030343;28;20030;-50
2023/08/07 10:48:28;;;;;;;4.32;1.58;;;16.50;99.90;;;;;;5030360;28;20040;-52
2023/08/07 10:50:54;;;;;;;5.15;1.20;;;16.30;99.90;;;;;;5012888;28;20418;-51
2023/08/07 10:53:45;;;;;;;4.55;1.45;;;15.90;99.90;;;;;;5030170;28;20060;-51
2023/08/07 10:56:34;;;;;;;4.80;1.50;;;15.60;99.90;;;;;;5030454;28;20036;-49
2023/08/07 10:59:08;;;;;;;3.60;1.73;;;15.30;99.90;;;;;;5034347;28;20035;-53
2023/08/07 11:01:34;;;;;;;16.63;5.10;;;15.10;99.90;;;;;;5016524;28;20390;-50
2023/08/07 11:04:11;;;;;;;13.82;4.05;;;15.10;99.90;;;;;;5034265;28;20033;-54
2023/08/07 11:06:38;;;;;;;7.35;2.22;;;15.20;99.90;;;;;;5034155;28;20029;-49
2023/08/07 11:09:06;;;;;;;7.68;1.98;;;15.50;99.90;;;;;;5034206;28;20045;-52
2023/08/07 11:11:39;;;;;;;8.98;3.17;;;15.70;99.90;;;;;;5034217;28;20500;-50
2023/08/07 11:14:08;;;;;;;6.28;1.60;;;15.90;99.90;;;;;;5033898;28;20040;-52
2023/08/07 11:16:34;;;;;;;;;;;16.10;99.90;;;;;;5016789;28;20372;-52
2023/08/07 11:19:00;;;;;;;4.07;2.13;;;16.20;99.90;;;;;;5033991;28;19909;-49
2023/08/07 11:21:26;;;;;;;4.13;1.90;;;16.30;99.90;;;;;;5033973;28;20029;-53
2023/08/07 11:23:51;;;;;;;4.78;1.85;;;16.40;99.90;;;;;;5033859;28;20497;-53
2023/08/07 11:26:21;;;;;;;5.28;1.70;;;16.60;99.90;;;;;;5033818;28;20025;-53
2023/08/07 11:28:47;;;;;;;8.70;2.08;;;16.60;99.90;;;;;;5033861;28;20111;-51
2023/08/07 11:31:13;;;;;;;3.15;1.45;;;16.70;99.90;;;;;;5033865;28;20025;-51
2023/08/07 11:33:40;;;;;;;3.28;1.30;;;16.60;99.90;;;;;;5033408;28;20079;-53
2023/08/07 11:36:13;;;;;;;5.78;1.90;;;16.50;99.90;;;;;;5016165;28;20033;-54
2023/08/07 11:38:44;;;;;;;4.82;1.92;;;16.50;99.90;;;;;;5033896;28;20044;-52
2023/08/07 11:41:11;;;;;;;6.65;1.55;;;16.50;99.90;;;;;;5033721;28;20026;-54
2023/08/07 11:43:38;;;;;;;7.65;2.08;;;16.50;99.90;;;;;;5033738;28;20067;-53
2023/08/07 11:46:08;;;;;;;6.30;2.28;;;16.50;99.90;;;;;;5033344;28;20025;-53
2023/08/07 11:48:35;;;;;;;5.20;1.67;;;16.70;99.90;;;;;;5033538;28;20181;-53
2023/08/07 11:51:02;;;;;;;2.75;1.42;;;16.90;99.90;;;;;;5033684;28;20030;-51
2023/08/07 11:53:31;;;;;;;2.95;1.10;;;17.00;99.90;;;;;;5033177;28;20378;-52
2023/08/07 11:55:59;;;;;;;5.37;1.73;;;17.10;99.90;;;;;;5015933;28;20044;-52
2023/08/07 11:58:26;;;;;;;5.90;1.58;;;17.10;99.90;;;;;;5033410;28;20505;-50
2023/08/07 12:00:52;;;;;;;4.38;1.92;;;17.00;99.90;;;;;;5033436;28;20389;-53
2023/08/07 12:03:29;;;;;;;6.60;1.70;;;16.80;99.90;;;;;;5033029;28;20120;-54
2023/08/07 12:05:56;;;;;;;5.28;1.42;;;16.80;99.90;;;;;;5033177;28;20056;-51
2023/08/07 12:08:22;;;;;;;4.65;1.20;;;16.80;99.90;;;;;;5032424;28;20046;-53
2023/08/07 12:10:53;;;;;;;6.20;1.40;;;17.00;99.90;;;;;;5033114;28;20077;-51
2023/08/07 12:13:28;;;;;;;4.93;1.50;;;17.10;99.90;;;;;;5032912;28;20033;-54
2023/08/07 12:15:55;;;;;;;6.30;1.98;;;17.20;99.90;;;;;;5033060;28;20064;-49
2023/08/07 12:18:23;;;;;;;5.30;1.30;;;17.50;99.90;;;;;;5033139;28;20060;-53
2023/08/07 12:20:52;;;;;;;3.63;1.27;;;17.50;99.90;;;;;;5033089;28;20441;-51
2023/08/07 12:23:20;;;;;;;3.17;1.23;;;17.70;99.90;;;;;;5032659;28;20029;-54
2023/08/07 12:25:47;;;;;;;7.22;1.83;;;17.80;99.90;;;;;;5032757;28;20048;-52
2023/08/07 12:28:12;;;;;;;4.35;1.00;;;17.80;99.90;;;;;;5033073;28;20441;-52
2023/08/07 12:30:38;;;;;;;3.80;1.63;;;18.00;99.90;;;;;;5032952;28;20087;-51
2023/08/07 12:33:05;;;;;;;3.45;1.20;;;18.10;99.90;;;;;;5032725;28;20221;-49
2023/08/07 12:35:31;;;;;;;4.63;1.35;;;18.20;99.90;;;;;;5032754;28;20119;-51
2023/08/07 12:37:57;;;;;;;6.22;1.20;;;18.20;99.90;;;;;;5032833;28;20501;-49
2023/08/07 12:40:23;;;;;;;5.45;1.17;;;18.30;99.90;;;;;;5032909;28;20057;-51
2023/08/07 12:42:50;;;;;;;7.65;1.35;;;18.30;99.90;;;;;;5032662;28;20034;-53
2023/08/07 12:45:16;;;;;;;4.22;1.42;;;18.40;99.90;;;;;;5032390;28;20037;-50